sensor_id;sensor_type;location;lat;lon;timestamp;temperature;humidity
35692;DHT22;26978;44.830;-0.674;2022-12-07T00:01:16;4.70;99.90
35692;DHT22;26978;44.830;-0.674;2022-12-07T00:03:42;4.70;99.90
35692;DHT22;26978;44.830;-0.674;2022-12-07T00:06:09;4.70;99.90
35692;DHT22;26978;44.830;-0.674;2022-12-07T00:08:35;4.70;99.90
35692;DHT22;26978;44.830;-0.674;2022-12-07T00:11:04;4.60;99.90
35692;DHT22;26978;44.830;-0.674;2022-12-07T00:13:30;4.70;99.90
35692;DHT22;26978;44.830;-0.674;2022-12-07T00:15:59;4.70;99.90
35692;DHT22;26978;44.830;-0.674;2022-12-07T00:18:25;4.70;99.90
35692;DHT22;26978;44.830;-0.674;2022-12-07T00:20:50;4.60;99.90
35692;DHT22;26978;44.830;-0.674;2022-12-07T00:23:16;4.60;99.90
35692;DHT22;26978;44.830;-0.674;2022-12-07T00:25:41;4.70;99.90
35692;DHT22;26978;44.830;-0.674;2022-12-07T00:28:07;4.60;99.90
35692;DHT22;26978;44.830;-0.674;2022-12-07T00:30:34;4.60;99.90
35692;DHT22;26978;44.830;-0.674;2022-12-07T00:33:00;4.60;99.90
35692;DHT22;26978;44.830;-0.674;2022-12-07T00:35:26;4.50;99.90
35692;DHT22;26978;44.830;-0.674;2022-12-07T00:37:51;4.50;99.90
35692;DHT22;26978;44.830;-0.674;2022-12-07T00:40:17;4.50;99.90
35692;DHT22;26978;44.830;-0.674;2022-12-07T00:42:42;4.40;99.90
35692;DHT22;26978;44.830;-0.674;2022-12-07T00:45:08;4.40;99.90
35692;DHT22;26978;44.830;-0.674;2022-12-07T00:47:34;4.30;99.90
35692;DHT22;26978;44.830;-0.674;2022-12-07T00:49:59;4.40;99.90
35692;DHT22;26978;44.830;-0.674;2022-12-07T00:52:25;4.40;99.90
35692;DHT22;26978;44.830;-0.674;2022-12-07T00:54:50;4.30;99.90
35692;DHT22;26978;44.830;-0.674;2022-12-07T00:57:16;4.30;99.90
35692;DHT22;26978;44.830;-0.674;2022-12-07T00:59:41;4.20;99.90
35692;DHT22;26978;44.830;-0.674;2022-12-07T01:02:07;4.10;99.90
35692;DHT22;26978;44.830;-0.674;2022-12-07T01:04:33;4.10;99.90
35692;DHT22;26978;44.830;-0.674;2022-12-07T01:06:59;3.90;99.90
35692;DHT22;26978;44.830;-0.674;2022-12-07T01:09:24;3.80;99.90
35692;DHT22;26978;44.830;-0.674;2022-12-07T01:11:50;3.70;99.90
35692;DHT22;26978;44.830;-0.674;2022-12-07T01:14:15;3.60;99.90
35692;DHT22;26978;44.830;-0.674;2022-12-07T01:16:41;3.60;99.90
35692;DHT22;26978;44.830;-0.674;2022-12-07T01:19:06;3.50;99.90
35692;DHT22;26978;44.830;-0.674;2022-12-07T01:21:33;3.40;99.90
35692;DHT22;26978;44.830;-0.674;2022-12-07T01:24:00;3.30;99.90
35692;DHT22;26978;44.830;-0.674;2022-12-07T01:26:26;3.30;99.90
35692;DHT22;26978;44.830;-0.674;2022-12-07T01:28:52;3.30;99.90
35692;DHT22;26978;44.830;-0.674;2022-12-07T01:31:21;3.10;99.90
35692;DHT22;26978;44.830;-0.674;2022-12-07T01:33:48;3.00;99.90
35692;DHT22;26978;44.830;-0.674;2022-12-07T01:38:39;3.00;99.90
35692;DHT22;26978;44.830;-0.674;2022-12-07T01:41:05;3.00;99.90
35692;DHT22;26978;44.830;-0.674;2022-12-07T01:43:31;3.00;99.90
35692;DHT22;26978;44.830;-0.674;2022-12-07T01:45:57;3.00;99.90
35692;DHT22;26978;44.830;-0.674;2022-12-07T01:48:34;3.00;99.90
35692;DHT22;26978;44.830;-0.674;2022-12-07T01:51:02;2.90;99.90
35692;DHT22;26978;44.830;-0.674;2022-12-07T01:53:29;2.80;99.90
35692;DHT22;26978;44.830;-0.674;2022-12-07T01:55:55;2.90;99.90
35692;DHT22;26978;44.830;-0.674;2022-12-07T01:58:21;2.90;99.90
35692;DHT22;26978;44.830;-0.674;2022-12-07T02:00:49;2.90;99.90
35692;DHT22;26978;44.830;-0.674;2022-12-07T02:03:29;2.90;99.90
35692;DHT22;26978;44.830;-0.674;2022-12-07T02:05:55;2.80;99.90
35692;DHT22;26978;44.830;-0.674;2022-12-07T02:08:21;2.70;99.90
35692;DHT22;26978;44.830;-0.674;2022-12-07T02:10:47;2.80;99.90
35692;DHT22;26978;44.830;-0.674;2022-12-07T02:13:13;2.80;99.90
35692;DHT22;26978;44.830;-0.674;2022-12-07T02:20:55;2.70;99.90
35692;DHT22;26978;44.830;-0.674;2022-12-07T02:30:54;2.60;99.90
35692;DHT22;26978;44.830;-0.674;2022-12-07T02:33:24;2.60;99.90
35692;DHT22;26978;44.830;-0.674;2022-12-07T02:35:56;2.60;99.90
35692;DHT22;26978;44.830;-0.674;2022-12-07T02:41:25;2.60;99.90
35692;DHT22;26978;44.830;-0.674;2022-12-07T02:46:43;2.50;99.90
35692;DHT22;26978;44.830;-0.674;2022-12-07T02:49:10;2.40;99.90
35692;DHT22;26978;44.830;-0.674;2022-12-07T02:51:38;2.30;99.90
35692;DHT22;26978;44.830;-0.674;2022-12-07T02:54:09;2.40;99.90
35692;DHT22;26978;44.830;-0.674;2022-12-07T03:04:36;2.20;99.90
35692;DHT22;26978;44.830;-0.674;2022-12-07T03:12:28;2.30;99.90
35692;DHT22;26978;44.830;-0.674;2022-12-07T03:15:06;2.30;99.90
35692;DHT22;26978;44.830;-0.674;2022-12-07T03:17:33;2.30;99.90
35692;DHT22;26978;44.830;-0.674;2022-12-07T03:20:00;2.20;99.90
35692;DHT22;26978;44.830;-0.674;2022-12-07T03:22:28;2.20;99.90
35692;DHT22;26978;44.830;-0.674;2022-12-07T03:24:57;2.20;99.90
35692;DHT22;26978;44.830;-0.674;2022-12-07T03:27:27;2.20;99.90
35692;DHT22;26978;44.830;-0.674;2022-12-07T03:29:54;2.20;99.90
35692;DHT22;26978;44.830;-0.674;2022-12-07T03:32:27;2.20;99.90
35692;DHT22;26978;44.830;-0.674;2022-12-07T03:35:00;2.30;99.90
35692;DHT22;26978;44.830;-0.674;2022-12-07T03:37:29;2.20;99.90
35692;DHT22;26978;44.830;-0.674;2022-12-07T03:42:28;2.20;99.90
35692;DHT22;26978;44.830;-0.674;2022-12-07T03:44:55;2.10;99.90
35692;DHT22;26978;44.830;-0.674;2022-12-07T03:47:29;2.00;99.90
35692;DHT22;26978;44.830;-0.674;2022-12-07T03:49:58;1.90;99.90
35692;DHT22;26978;44.830;-0.674;2022-12-07T03:52:26;2.00;99.90
35692;DHT22;26978;44.830;-0.674;2022-12-07T03:57:21;1.80;99.90
35692;DHT22;26978;44.830;-0.674;2022-12-07T03:59:47;1.90;99.90
35692;DHT22;26978;44.830;-0.674;2022-12-07T04:02:13;1.80;99.90
35692;DHT22;26978;44.830;-0.674;2022-12-07T04:04:40;1.90;99.90
35692;DHT22;26978;44.830;-0.674;2022-12-07T04:07:05;1.90;99.90
35692;DHT22;26978;44.830;-0.674;2022-12-07T04:09:31;1.90;99.90
35692;DHT22;26978;44.830;-0.674;2022-12-07T04:11:56;2.00;99.90
35692;DHT22;26978;44.830;-0.674;2022-12-07T04:14:22;2.00;99.90
35692;DHT22;26978;44.830;-0.674;2022-12-07T04:16:48;2.00;99.90
35692;DHT22;26978;44.830;-0.674;2022-12-07T04:19:14;1.80;99.90
35692;DHT22;26978;44.830;-0.674;2022-12-07T04:21:40;1.80;99.90
35692;DHT22;26978;44.830;-0.674;2022-12-07T04:24:06;1.90;99.90
35692;DHT22;26978;44.830;-0.674;2022-12-07T04:26:31;1.90;99.90
35692;DHT22;26978;44.830;-0.674;2022-12-07T04:28:57;1.90;99.90
35692;DHT22;26978;44.830;-0.674;2022-12-07T04:31:22;1.90;99.90
35692;DHT22;26978;44.830;-0.674;2022-12-07T04:33:48;1.90;99.90
35692;DHT22;26978;44.830;-0.674;2022-12-07T04:36:13;2.00;99.90
35692;DHT22;26978;44.830;-0.674;2022-12-07T04:38:39;2.00;99.90
35692;DHT22;26978;44.830;-0.674;2022-12-07T04:41:05;1.90;99.90
35692;DHT22;26978;44.830;-0.674;2022-12-07T04:43:31;1.80;99.90
35692;DHT22;26978;44.830;-0.674;2022-12-07T04:45:56;1.80;99.90
35692;DHT22;26978;44.830;-0.674;2022-12-07T04:48:22;1.80;99.90
35692;DHT22;26978;44.830;-0.674;2022-12-07T04:50:48;2.00;99.90
35692;DHT22;26978;44.830;-0.674;2022-12-07T04:53:14;1.90;99.90
35692;DHT22;26978;44.830;-0.674;2022-12-07T04:55:40;1.90;99.90
35692;DHT22;26978;44.830;-0.674;2022-12-07T04:58:06;1.90;99.90
35692;DHT22;26978;44.830;-0.674;2022-12-07T05:00:32;1.90;99.90
35692;DHT22;26978;44.830;-0.674;2022-12-07T05:02:57;1.80;99.90
35692;DHT22;26978;44.830;-0.674;2022-12-07T05:05:23;1.90;99.90
35692;DHT22;26978;44.830;-0.674;2022-12-07T05:07:49;1.90;99.90
35692;DHT22;26978;44.830;-0.674;2022-12-07T05:10:15;1.80;99.90
35692;DHT22;26978;44.830;-0.674;2022-12-07T05:12:40;1.70;99.90
35692;DHT22;26978;44.830;-0.674;2022-12-07T05:15:06;1.80;99.90
35692;DHT22;26978;44.830;-0.674;2022-12-07T05:17:31;1.90;99.90
35692;DHT22;26978;44.830;-0.674;2022-12-07T05:19:57;2.00;99.90
35692;DHT22;26978;44.830;-0.674;2022-12-07T05:22:23;1.90;99.90
35692;DHT22;26978;44.830;-0.674;2022-12-07T05:24:50;1.90;99.90
35692;DHT22;26978;44.830;-0.674;2022-12-07T05:27:16;1.90;99.90
35692;DHT22;26978;44.830;-0.674;2022-12-07T05:29:41;2.00;99.90
35692;DHT22;26978;44.830;-0.674;2022-12-07T05:32:07;2.20;99.90
35692;DHT22;26978;44.830;-0.674;2022-12-07T05:34:32;2.10;99.90
35692;DHT22;26978;44.830;-0.674;2022-12-07T05:36:58;2.00;99.90
35692;DHT22;26978;44.830;-0.674;2022-12-07T05:39:23;1.90;99.90
35692;DHT22;26978;44.830;-0.674;2022-12-07T05:41:49;1.90;99.90
35692;DHT22;26978;44.830;-0.674;2022-12-07T05:44:33;2.00;99.90
35692;DHT22;26978;44.830;-0.674;2022-12-07T05:46:58;2.10;99.90
35692;DHT22;26978;44.830;-0.674;2022-12-07T05:49:24;2.10;99.90
35692;DHT22;26978;44.830;-0.674;2022-12-07T05:51:50;2.10;99.90
35692;DHT22;26978;44.830;-0.674;2022-12-07T05:54:15;2.20;99.90
35692;DHT22;26978;44.830;-0.674;2022-12-07T05:56:41;2.20;99.90
35692;DHT22;26978;44.830;-0.674;2022-12-07T05:59:07;2.30;99.90
35692;DHT22;26978;44.830;-0.674;2022-12-07T06:01:51;2.20;99.90
35692;DHT22;26978;44.830;-0.674;2022-12-07T06:04:16;2.30;99.90
35692;DHT22;26978;44.830;-0.674;2022-12-07T06:06:42;2.30;99.90
35692;DHT22;26978;44.830;-0.674;2022-12-07T06:09:07;2.30;99.90
35692;DHT22;26978;44.830;-0.674;2022-12-07T06:11:33;2.20;99.90
35692;DHT22;26978;44.830;-0.674;2022-12-07T06:14:17;2.20;99.90
35692;DHT22;26978;44.830;-0.674;2022-12-07T06:16:43;2.30;99.90
35692;DHT22;26978;44.830;-0.674;2022-12-07T06:19:08;2.30;99.90
35692;DHT22;26978;44.830;-0.674;2022-12-07T06:21:34;2.40;99.90
35692;DHT22;26978;44.830;-0.674;2022-12-07T06:23:59;2.30;99.90
35692;DHT22;26978;44.830;-0.674;2022-12-07T06:26:25;2.40;99.90
35692;DHT22;26978;44.830;-0.674;2022-12-07T06:28:50;2.40;99.90
35692;DHT22;26978;44.830;-0.674;2022-12-07T06:31:16;2.30;99.90
35692;DHT22;26978;44.830;-0.674;2022-12-07T06:33:42;2.30;99.90
35692;DHT22;26978;44.830;-0.674;2022-12-07T06:36:08;2.40;99.90
35692;DHT22;26978;44.830;-0.674;2022-12-07T06:38:33;2.40;99.90
35692;DHT22;26978;44.830;-0.674;2022-12-07T06:40:59;2.40;99.90
35692;DHT22;26978;44.830;-0.674;2022-12-07T06:43:24;2.30;99.90
35692;DHT22;26978;44.830;-0.674;2022-12-07T06:45:50;2.40;99.90
35692;DHT22;26978;44.830;-0.674;2022-12-07T06:48:16;2.40;99.90
35692;DHT22;26978;44.830;-0.674;2022-12-07T06:50:43;2.40;99.90
35692;DHT22;26978;44.830;-0.674;2022-12-07T06:53:10;2.40;99.90
35692;DHT22;26978;44.830;-0.674;2022-12-07T06:55:35;2.40;99.90
35692;DHT22;26978;44.830;-0.674;2022-12-07T06:58:01;2.40;99.90
35692;DHT22;26978;44.830;-0.674;2022-12-07T07:00:27;2.50;99.90
35692;DHT22;26978;44.830;-0.674;2022-12-07T07:02:53;2.40;99.90
35692;DHT22;26978;44.830;-0.674;2022-12-07T07:05:18;2.50;99.90
35692;DHT22;26978;44.830;-0.674;2022-12-07T07:07:46;2.50;99.90
35692;DHT22;26978;44.830;-0.674;2022-12-07T07:10:13;2.60;99.90
35692;DHT22;26978;44.830;-0.674;2022-12-07T07:12:38;2.50;99.90
35692;DHT22;26978;44.830;-0.674;2022-12-07T07:15:04;2.60;99.90
35692;DHT22;26978;44.830;-0.674;2022-12-07T07:17:30;2.60;99.90
35692;DHT22;26978;44.830;-0.674;2022-12-07T07:19:55;2.60;99.90
35692;DHT22;26978;44.830;-0.674;2022-12-07T07:22:21;2.60;99.90
35692;DHT22;26978;44.830;-0.674;2022-12-07T07:24:46;2.50;99.90
35692;DHT22;26978;44.830;-0.674;2022-12-07T07:27:12;2.50;99.90
35692;DHT22;26978;44.830;-0.674;2022-12-07T07:29:37;2.50;99.90
35692;DHT22;26978;44.830;-0.674;2022-12-07T07:32:03;2.50;99.90
35692;DHT22;26978;44.830;-0.674;2022-12-07T07:34:28;2.50;99.90
35692;DHT22;26978;44.830;-0.674;2022-12-07T07:36:54;2.60;99.90
35692;DHT22;26978;44.830;-0.674;2022-12-07T07:39:19;2.60;99.90
35692;DHT22;26978;44.830;-0.674;2022-12-07T07:41:46;2.50;99.90
35692;DHT22;26978;44.830;-0.674;2022-12-07T07:44:11;2.50;99.90
35692;DHT22;26978;44.830;-0.674;2022-12-07T07:46:37;2.60;99.90
35692;DHT22;26978;44.830;-0.674;2022-12-07T07:49:03;2.60;99.90
35692;DHT22;26978;44.830;-0.674;2022-12-07T07:51:28;2.60;99.90
35692;DHT22;26978;44.830;-0.674;2022-12-07T07:53:54;2.70;99.90
35692;DHT22;26978;44.830;-0.674;2022-12-07T07:56:19;2.60;99.90
35692;DHT22;26978;44.830;-0.674;2022-12-07T07:58:45;2.60;99.90
35692;DHT22;26978;44.830;-0.674;2022-12-07T08:01:10;2.60;99.90
35692;DHT22;26978;44.830;-0.674;2022-12-07T08:03:36;2.60;99.90
35692;DHT22;26978;44.830;-0.674;2022-12-07T08:06:02;2.60;99.90
35692;DHT22;26978;44.830;-0.674;2022-12-07T08:08:28;2.50;99.90
35692;DHT22;26978;44.830;-0.674;2022-12-07T08:10:53;2.50;99.90
35692;DHT22;26978;44.830;-0.674;2022-12-07T08:13:19;2.50;99.90
35692;DHT22;26978;44.830;-0.674;2022-12-07T08:15:45;2.50;99.90
35692;DHT22;26978;44.830;-0.674;2022-12-07T08:18:11;2.70;99.90
35692;DHT22;26978;44.830;-0.674;2022-12-07T08:20:37;2.70;99.90
35692;DHT22;26978;44.830;-0.674;2022-12-07T08:23:03;2.70;99.90
35692;DHT22;26978;44.830;-0.674;2022-12-07T08:25:29;2.80;99.90
35692;DHT22;26978;44.830;-0.674;2022-12-07T08:27:55;2.80;99.90
35692;DHT22;26978;44.830;-0.674;2022-12-07T08:30:20;2.80;99.90
35692;DHT22;26978;44.830;-0.674;2022-12-07T08:32:47;2.80;99.90
35692;DHT22;26978;44.830;-0.674;2022-12-07T08:35:13;2.70;99.90
35692;DHT22;26978;44.830;-0.674;2022-12-07T08:37:38;2.70;99.90
35692;DHT22;26978;44.830;-0.674;2022-12-07T08:40:04;2.80;99.90
35692;DHT22;26978;44.830;-0.674;2022-12-07T08:42:30;2.80;99.90
35692;DHT22;26978;44.830;-0.674;2022-12-07T08:45:06;2.80;99.90
35692;DHT22;26978;44.830;-0.674;2022-12-07T08:47:33;2.70;99.90
35692;DHT22;26978;44.830;-0.674;2022-12-07T08:49:59;2.70;99.90
35692;DHT22;26978;44.830;-0.674;2022-12-07T08:52:31;2.70;99.90
35692;DHT22;26978;44.830;-0.674;2022-12-07T08:54:57;2.90;99.90
35692;DHT22;26978;44.830;-0.674;2022-12-07T08:57:24;2.70;99.90
35692;DHT22;26978;44.830;-0.674;2022-12-07T08:59:49;2.70;99.90
35692;DHT22;26978;44.830;-0.674;2022-12-07T09:02:15;2.60;99.90
35692;DHT22;26978;44.830;-0.674;2022-12-07T09:04:40;2.60;99.90
35692;DHT22;26978;44.830;-0.674;2022-12-07T09:07:06;2.50;99.90
35692;DHT22;26978;44.830;-0.674;2022-12-07T09:09:31;2.50;99.90
35692;DHT22;26978;44.830;-0.674;2022-12-07T09:11:57;2.60;99.90
35692;DHT22;26978;44.830;-0.674;2022-12-07T09:14:23;2.60;99.90
35692;DHT22;26978;44.830;-0.674;2022-12-07T09:16:48;2.40;99.90
35692;DHT22;26978;44.830;-0.674;2022-12-07T09:19:14;2.50;99.90
35692;DHT22;26978;44.830;-0.674;2022-12-07T09:21:39;2.60;99.90
35692;DHT22;26978;44.830;-0.674;2022-12-07T09:24:05;2.60;99.90
35692;DHT22;26978;44.830;-0.674;2022-12-07T09:26:31;2.70;99.90
35692;DHT22;26978;44.830;-0.674;2022-12-07T09:28:56;2.90;99.90
35692;DHT22;26978;44.830;-0.674;2022-12-07T09:31:22;2.90;99.90
35692;DHT22;26978;44.830;-0.674;2022-12-07T09:33:52;2.90;99.90
35692;DHT22;26978;44.830;-0.674;2022-12-07T09:36:17;3.00;99.90
35692;DHT22;26978;44.830;-0.674;2022-12-07T09:38:43;3.20;99.90
35692;DHT22;26978;44.830;-0.674;2022-12-07T09:41:08;3.20;99.90
35692;DHT22;26978;44.830;-0.674;2022-12-07T09:43:35;3.30;99.90
35692;DHT22;26978;44.830;-0.674;2022-12-07T09:46:01;3.30;99.90
35692;DHT22;26978;44.830;-0.674;2022-12-07T09:48:34;3.40;99.90
35692;DHT22;26978;44.830;-0.674;2022-12-07T09:51:02;3.60;99.90
35692;DHT22;26978;44.830;-0.674;2022-12-07T09:55:54;3.60;99.90
35692;DHT22;26978;44.830;-0.674;2022-12-07T09:58:24;3.50;99.90
35692;DHT22;26978;44.830;-0.674;2022-12-07T10:01:05;3.60;99.90
35692;DHT22;26978;44.830;-0.674;2022-12-07T10:03:31;3.80;99.90
35692;DHT22;26978;44.830;-0.674;2022-12-07T10:05:57;3.80;99.90
35692;DHT22;26978;44.830;-0.674;2022-12-07T10:08:22;3.80;99.90
35692;DHT22;26978;44.830;-0.674;2022-12-07T10:10:52;3.90;99.90
35692;DHT22;26978;44.830;-0.674;2022-12-07T10:13:34;4.10;99.90
35692;DHT22;26978;44.830;-0.674;2022-12-07T10:16:00;4.00;99.90
35692;DHT22;26978;44.830;-0.674;2022-12-07T10:18:30;4.10;99.90
35692;DHT22;26978;44.830;-0.674;2022-12-07T10:23:34;4.50;99.90
35692;DHT22;26978;44.830;-0.674;2022-12-07T10:26:18;4.60;99.90
35692;DHT22;26978;44.830;-0.674;2022-12-07T10:28:44;4.50;99.90
35692;DHT22;26978;44.830;-0.674;2022-12-07T10:31:19;4.50;99.90
35692;DHT22;26978;44.830;-0.674;2022-12-07T10:33:58;4.60;99.90
35692;DHT22;26978;44.830;-0.674;2022-12-07T10:38:51;4.70;99.90
35692;DHT22;26978;44.830;-0.674;2022-12-07T10:41:17;4.70;99.90
35692;DHT22;26978;44.830;-0.674;2022-12-07T10:43:47;4.60;99.90
35692;DHT22;26978;44.830;-0.674;2022-12-07T10:54:03;4.70;99.90
35692;DHT22;26978;44.830;-0.674;2022-12-07T10:59:33;4.80;99.90
35692;DHT22;26978;44.830;-0.674;2022-12-07T11:04:55;4.80;99.90
35692;DHT22;26978;44.830;-0.674;2022-12-07T11:10:08;4.80;99.90
35692;DHT22;26978;44.830;-0.674;2022-12-07T11:17:36;4.80;99.90
35692;DHT22;26978;44.830;-0.674;2022-12-07T11:20:14;4.80;99.90
35692;DHT22;26978;44.830;-0.674;2022-12-07T11:22:51;4.80;99.90
35692;DHT22;26978;44.830;-0.674;2022-12-07T11:28:10;4.90;99.90
35692;DHT22;26978;44.830;-0.674;2022-12-07T11:30:39;5.00;99.90
35692;DHT22;26978;44.830;-0.674;2022-12-07T11:38:27;5.20;99.90
35692;DHT22;26978;44.830;-0.674;2022-12-07T11:40:56;5.30;99.90
35692;DHT22;26978;44.830;-0.674;2022-12-07T11:43:48;5.40;99.90
35692;DHT22;26978;44.830;-0.674;2022-12-07T11:46:15;5.50;99.90
35692;DHT22;26978;44.830;-0.674;2022-12-07T11:48:45;5.70;99.90
35692;DHT22;26978;44.830;-0.674;2022-12-07T11:51:12;5.80;99.90
35692;DHT22;26978;44.830;-0.674;2022-12-07T12:03:40;5.90;99.90
35692;DHT22;26978;44.830;-0.674;2022-12-07T12:06:07;6.00;99.90
35692;DHT22;26978;44.830;-0.674;2022-12-07T12:08:34;6.00;99.90
35692;DHT22;26978;44.830;-0.674;2022-12-07T12:22:04;6.40;99.90
35692;DHT22;26978;44.830;-0.674;2022-12-07T12:24:31;6.50;99.90
35692;DHT22;26978;44.830;-0.674;2022-12-07T12:27:04;6.60;99.90
35692;DHT22;26978;44.830;-0.674;2022-12-07T12:29:34;6.70;99.90
35692;DHT22;26978;44.830;-0.674;2022-12-07T12:32:04;6.80;99.90
35692;DHT22;26978;44.830;-0.674;2022-12-07T12:34:33;7.00;99.90
35692;DHT22;26978;44.830;-0.674;2022-12-07T12:36:59;7.10;99.90
35692;DHT22;26978;44.830;-0.674;2022-12-07T12:39:24;7.20;99.90
35692;DHT22;26978;44.830;-0.674;2022-12-07T12:41:51;7.30;99.90
35692;DHT22;26978;44.830;-0.674;2022-12-07T12:51:49;7.10;99.90
35692;DHT22;26978;44.830;-0.674;2022-12-07T12:54:19;7.10;99.90
35692;DHT22;26978;44.830;-0.674;2022-12-07T12:56:51;7.00;99.90
35692;DHT22;26978;44.830;-0.674;2022-12-07T13:01:46;7.20;99.90
35692;DHT22;26978;44.830;-0.674;2022-12-07T13:04:14;7.30;99.90
35692;DHT22;26978;44.830;-0.674;2022-12-07T13:06:42;7.30;99.90
35692;DHT22;26978;44.830;-0.674;2022-12-07T13:09:16;7.40;99.90
35692;DHT22;26978;44.830;-0.674;2022-12-07T13:11:43;7.50;99.90
35692;DHT22;26978;44.830;-0.674;2022-12-07T13:16:54;7.50;99.90
35692;DHT22;26978;44.830;-0.674;2022-12-07T13:22:08;7.70;99.90
35692;DHT22;26978;44.830;-0.674;2022-12-07T13:24:49;7.70;99.90
35692;DHT22;26978;44.830;-0.674;2022-12-07T13:27:19;7.80;99.90
35692;DHT22;26978;44.830;-0.674;2022-12-07T13:29:45;7.90;99.90
35692;DHT22;26978;44.830;-0.674;2022-12-07T13:32:25;8.00;99.90
35692;DHT22;26978;44.830;-0.674;2022-12-07T13:34:51;8.00;99.90
35692;DHT22;26978;44.830;-0.674;2022-12-07T13:37:30;8.00;99.90
35692;DHT22;26978;44.830;-0.674;2022-12-07T13:39:58;8.00;99.90
35692;DHT22;26978;44.830;-0.674;2022-12-07T13:42:33;8.00;99.90
35692;DHT22;26978;44.830;-0.674;2022-12-07T13:45:00;8.00;99.90
35692;DHT22;26978;44.830;-0.674;2022-12-07T13:47:36;7.80;99.90
35692;DHT22;26978;44.830;-0.674;2022-12-07T13:50:24;7.80;99.90
35692;DHT22;26978;44.830;-0.674;2022-12-07T13:52:54;7.70;99.90
35692;DHT22;26978;44.830;-0.674;2022-12-07T13:55:19;7.60;99.90
35692;DHT22;26978;44.830;-0.674;2022-12-07T13:57:47;7.60;99.90
35692;DHT22;26978;44.830;-0.674;2022-12-07T14:00:21;7.50;99.90
35692;DHT22;26978;44.830;-0.674;2022-12-07T14:02:57;7.40;99.90
35692;DHT22;26978;44.830;-0.674;2022-12-07T14:07:54;7.30;99.90
35692;DHT22;26978;44.830;-0.674;2022-12-07T14:10:27;7.30;99.90
35692;DHT22;26978;44.830;-0.674;2022-12-07T14:12:53;7.20;99.90
35692;DHT22;26978;44.830;-0.674;2022-12-07T14:15:23;7.20;99.90
35692;DHT22;26978;44.830;-0.674;2022-12-07T14:17:49;7.10;99.90
35692;DHT22;26978;44.830;-0.674;2022-12-07T14:23:24;7.10;99.90
35692;DHT22;26978;44.830;-0.674;2022-12-07T14:25:52;7.10;99.90
35692;DHT22;26978;44.830;-0.674;2022-12-07T14:28:50;7.10;99.90
35692;DHT22;26978;44.830;-0.674;2022-12-07T14:31:21;7.00;99.90
35692;DHT22;26978;44.830;-0.674;2022-12-07T14:33:49;7.00;99.90
35692;DHT22;26978;44.830;-0.674;2022-12-07T14:36:14;7.00;99.90
35692;DHT22;26978;44.830;-0.674;2022-12-07T14:38:40;6.90;99.90
35692;DHT22;26978;44.830;-0.674;2022-12-07T14:41:06;6.90;99.90
35692;DHT22;26978;44.830;-0.674;2022-12-07T14:43:54;6.90;99.90
35692;DHT22;26978;44.830;-0.674;2022-12-07T14:46:19;6.80;99.90
35692;DHT22;26978;44.830;-0.674;2022-12-07T14:48:45;6.80;99.90
35692;DHT22;26978;44.830;-0.674;2022-12-07T14:51:10;6.80;99.90
35692;DHT22;26978;44.830;-0.674;2022-12-07T14:53:39;6.90;99.90
35692;DHT22;26978;44.830;-0.674;2022-12-07T14:56:05;6.80;99.90
35692;DHT22;26978;44.830;-0.674;2022-12-07T14:58:31;6.80;99.90
35692;DHT22;26978;44.830;-0.674;2022-12-07T15:00:57;6.80;99.90
35692;DHT22;26978;44.830;-0.674;2022-12-07T15:03:23;6.80;99.90
35692;DHT22;26978;44.830;-0.674;2022-12-07T15:05:49;6.80;99.90
35692;DHT22;26978;44.830;-0.674;2022-12-07T15:08:14;6.70;99.90
35692;DHT22;26978;44.830;-0.674;2022-12-07T15:10:40;6.60;99.90
35692;DHT22;26978;44.830;-0.674;2022-12-07T15:13:06;6.70;99.90
35692;DHT22;26978;44.830;-0.674;2022-12-07T15:15:51;6.60;99.90
35692;DHT22;26978;44.830;-0.674;2022-12-07T15:18:16;6.50;99.90
35692;DHT22;26978;44.830;-0.674;2022-12-07T15:20:42;6.40;99.90
35692;DHT22;26978;44.830;-0.674;2022-12-07T15:23:08;6.40;99.90
35692;DHT22;26978;44.830;-0.674;2022-12-07T15:25:33;6.30;99.90
35692;DHT22;26978;44.830;-0.674;2022-12-07T15:27:59;6.30;99.90
35692;DHT22;26978;44.830;-0.674;2022-12-07T15:30:24;6.20;99.90
35692;DHT22;26978;44.830;-0.674;2022-12-07T15:32:50;6.20;99.90
35692;DHT22;26978;44.830;-0.674;2022-12-07T15:35:16;6.20;99.90
35692;DHT22;26978;44.830;-0.674;2022-12-07T15:37:41;6.20;99.90
35692;DHT22;26978;44.830;-0.674;2022-12-07T15:40:07;6.10;99.90
35692;DHT22;26978;44.830;-0.674;2022-12-07T15:42:33;6.00;99.90
35692;DHT22;26978;44.830;-0.674;2022-12-07T15:44:58;6.00;99.90
35692;DHT22;26978;44.830;-0.674;2022-12-07T15:47:34;5.90;99.90
35692;DHT22;26978;44.830;-0.674;2022-12-07T15:50:02;5.90;99.90
35692;DHT22;26978;44.830;-0.674;2022-12-07T15:52:27;5.90;99.90
35692;DHT22;26978;44.830;-0.674;2022-12-07T15:54:53;5.90;99.90
35692;DHT22;26978;44.830;-0.674;2022-12-07T15:57:18;6.00;99.90
35692;DHT22;26978;44.830;-0.674;2022-12-07T15:59:44;6.10;99.90
35692;DHT22;26978;44.830;-0.674;2022-12-07T16:02:10;6.30;99.90
35692;DHT22;26978;44.830;-0.674;2022-12-07T16:04:35;6.30;99.90
35692;DHT22;26978;44.830;-0.674;2022-12-07T16:07:01;6.40;99.90
35692;DHT22;26978;44.830;-0.674;2022-12-07T16:09:27;6.40;99.90
35692;DHT22;26978;44.830;-0.674;2022-12-07T16:11:52;6.40;99.90
35692;DHT22;26978;44.830;-0.674;2022-12-07T16:14:18;6.40;99.90
35692;DHT22;26978;44.830;-0.674;2022-12-07T16:16:43;6.30;99.90
35692;DHT22;26978;44.830;-0.674;2022-12-07T16:19:09;6.20;99.90
35692;DHT22;26978;44.830;-0.674;2022-12-07T16:21:36;6.30;99.90
35692;DHT22;26978;44.830;-0.674;2022-12-07T16:24:02;6.20;99.90
35692;DHT22;26978;44.830;-0.674;2022-12-07T16:26:27;6.20;99.90
35692;DHT22;26978;44.830;-0.674;2022-12-07T16:28:53;6.00;99.90
35692;DHT22;26978;44.830;-0.674;2022-12-07T16:31:21;6.00;99.90
35692;DHT22;26978;44.830;-0.674;2022-12-07T16:33:47;6.00;99.90
35692;DHT22;26978;44.830;-0.674;2022-12-07T16:36:14;5.90;99.90
35692;DHT22;26978;44.830;-0.674;2022-12-07T16:38:41;5.70;99.90
35692;DHT22;26978;44.830;-0.674;2022-12-07T16:41:07;5.70;99.90
35692;DHT22;26978;44.830;-0.674;2022-12-07T16:43:33;5.50;99.90
35692;DHT22;26978;44.830;-0.674;2022-12-07T16:45:59;5.50;99.90
35692;DHT22;26978;44.830;-0.674;2022-12-07T16:48:24;5.50;99.90
35692;DHT22;26978;44.830;-0.674;2022-12-07T16:50:50;5.40;99.90
35692;DHT22;26978;44.830;-0.674;2022-12-07T16:53:19;5.20;99.90
35692;DHT22;26978;44.830;-0.674;2022-12-07T16:55:45;5.10;99.90
35692;DHT22;26978;44.830;-0.674;2022-12-07T16:58:11;5.10;99.90
35692;DHT22;26978;44.830;-0.674;2022-12-07T17:00:38;5.00;99.90
35692;DHT22;26978;44.830;-0.674;2022-12-07T17:03:03;5.00;99.90
35692;DHT22;26978;44.830;-0.674;2022-12-07T17:05:29;5.00;99.90
35692;DHT22;26978;44.830;-0.674;2022-12-07T17:07:55;4.90;99.90
35692;DHT22;26978;44.830;-0.674;2022-12-07T17:10:21;5.00;99.90
35692;DHT22;26978;44.830;-0.674;2022-12-07T17:12:46;5.00;99.90
35692;DHT22;26978;44.830;-0.674;2022-12-07T17:15:12;5.00;99.90
35692;DHT22;26978;44.830;-0.674;2022-12-07T17:17:44;4.90;99.90
35692;DHT22;26978;44.830;-0.674;2022-12-07T17:20:10;4.90;99.90
35692;DHT22;26978;44.830;-0.674;2022-12-07T17:22:36;4.90;99.90
35692;DHT22;26978;44.830;-0.674;2022-12-07T17:25:03;5.00;99.90
35692;DHT22;26978;44.830;-0.674;2022-12-07T17:27:28;5.20;99.90
35692;DHT22;26978;44.830;-0.674;2022-12-07T17:29:54;5.30;99.90